METAR Formatted Surface Weather Observation
Issued by NWS

Home | Current Version | Previous Version | Text Only | Print | Product List | Glossary On
Versions: 1 2 3 4 5 6 7 8
000
SAUS46 KSEW 150703
MTRSMP
METAR KSMP 150656Z AUTO VRB03KT 10SM CLR 13/M02 A3005 RMK AO2 SLP155
T01331017 $



USA.gov is the U.S. government's official web portal to all federal, state and local government web resources and services.